Red Oak, IA

7:08 AM CDT on May 24, 2015 (GMT -0500)
Atlantic Municipal | | Change Station
CLOSE
Current Station
Airport
Location: Atlantic,
Elevation: 1181 ft
Nearby Weather Stations

Elev 1181 ft 41.41 °N, 95.05 °W | Updated 13 minutes ago

Overcast
Overcast
59 °F
Feels Like 59 °F
N
9
Wind Variable Wind from East

Today
High -- | Low -- °F
--% Chance of Precip.
Yesterday
High -- | Low -- °F
Precip. -- in
5:55 AM 8:40 PM
Waxing Crescent, 38% visible
Pressure 29.91 in
Visibility 1.8 miles
Clouds Overcast 600 ft
Dew Point 59 °F
Humidity 100%
Rainfall 0.19 in
Snow Depth Not available.
UV 0 out of 12
Pollen .50 out of 12
Air Quality Not available.
Flu Activity Sporadic
METAR KAIO 241155Z AUTO 08008KT 1 3/4SM -DZ OVC006 15/15 A2991 RMK AO2 P0009

More Conditions Fewer Conditions

Pressure 29.91 in
Visibility 1.8 miles
Clouds Overcast 600 ft
Dew Point 59 °F
Humidity 100%
Rainfall 0.19 in
Snow Depth Not available.
UV 0 out of 12
Pollen .50 out of 12
Air Quality Not available.
Flu Activity Sporadic
METAR KAIO 241155Z AUTO 08008KT 1 3/4SM -DZ OVC006 15/15 A2991 RMK AO2 P0009

More Conditions Fewer Conditions

10-Day Weather Forecast

Almanac

Astronomy

May. 24, 2015 Rise Set
Actual Time
Civil Twilight
Nautical Twilight
Astronomical Twilight
Moon
Length of Visible Light
Length of Day
Tomorrow will be .
, % of the Moon is Illuminated

Today's Extremes

State Highs State Lows

Community

WunderPhotos

Upload Photos

1,823,721 photos uploaded!

WunderBlogs® & News

Nearby

Air Quality

  Air Quality AQ Index Pollutant
Not available.

Snow Depth

Station Depth Elevation

Earthquake Activity

City Distance Mag. Time & Date
Minimum magnitude displayed is 2.5.

Coastal Water Temperatures

Place Temperature

Stations

Nearby Weather Stations

Station Location Temp. Windchill Dew Point Humidity Wind Precip. Elev Updated Type